Time;durP1;ratioP1;P1;durP2;ratioP2;P2;SDS_P1;SDS_P2;PMS_P1;PMS_P2;Temp;Humidity;BMP_temperature;BMP_pressure;BME280_temperature;BME280_humidity;BME280_pressure;Samples;Min_cycle;Max_cycle;Signal;HPM_P1;HPM_P2
2023/12/13 00:02:25;;;;;;;2.17;1.77;;;11.40;80.40;;;;;;4976789;28;20137;-75
2023/12/13 00:04:50;;;;;;;1.77;1.67;;;11.40;80.40;;;;;;4993309;28;20110;-74
2023/12/13 00:07:16;;;;;;;1.77;1.50;;;11.40;80.30;;;;;;4993172;28;20045;-74
2023/12/13 00:09:42;;;;;;;2.17;1.77;;;11.40;80.30;;;;;;4993128;28;20038;-74
2023/12/13 00:12:08;;;;;;;2.10;1.90;;;11.40;80.30;;;;;;4976841;28;20032;-75
2023/12/13 00:14:33;;;;;;;2.70;1.77;;;11.40;80.30;;;;;;4993215;28;20044;-73
2023/12/13 00:16:59;;;;;;;2.22;1.88;;;11.40;80.30;;;;;;4994213;28;20035;-75
2023/12/13 00:19:25;;;;;;;1.98;1.77;;;11.40;80.30;;;;;;4993180;28;20035;-73
2023/12/13 00:21:51;;;;;;;2.65;1.90;;;11.40;80.30;;;;;;4993103;28;20034;-74
2023/12/13 00:24:16;;;;;;;2.25;1.80;;;11.30;80.30;;;;;;4993262;28;20471;-75
2023/12/13 00:26:42;;;;;;;1.67;1.58;;;11.40;80.40;;;;;;4976937;28;20126;-75
2023/12/13 00:29:11;;;;;;;2.00;1.60;;;11.30;80.30;;;;;;4977063;28;20030;-76
2023/12/13 00:31:36;;;;;;;2.30;1.80;;;11.30;80.40;;;;;;4992915;28;20038;-75
2023/12/13 00:34:03;;;;;;;1.75;1.63;;;11.30;80.40;;;;;;4993029;28;20448;-73
2023/12/13 00:36:29;;;;;;;1.95;1.65;;;11.30;80.40;;;;;;4992596;28;20076;-74
2023/12/13 00:38:54;;;;;;;2.58;1.80;;;11.30;80.40;;;;;;4993168;28;20119;-74
2023/12/13 00:41:22;;;;;;;1.63;1.52;;;11.30;80.40;;;;;;4976559;28;20038;-74
2023/12/13 00:43:47;;;;;;;1.55;1.45;;;11.30;80.40;;;;;;4976731;28;20034;-74
2023/12/13 00:46:19;;;;;;;2.10;1.85;;;11.30;80.40;;;;;;4976748;28;20189;-75
2023/12/13 00:48:46;;;;;;;1.92;1.73;;;11.30;80.40;;;;;;4976995;28;20026;-74
2023/12/13 00:51:22;;;;;;;1.77;1.60;;;11.30;80.40;;;;;;4992869;28;20038;-75
2023/12/13 00:53:49;;;;;;;1.63;1.52;;;11.30;80.50;;;;;;4976321;28;20030;-74
2023/12/13 00:56:15;;;;;;;2.03;1.70;;;11.30;80.40;;;;;;4992588;28;20034;-74
2023/12/13 00:58:42;;;;;;;1.98;1.65;;;11.30;80.40;;;;;;4976658;28;20100;-75
2023/12/13 01:01:08;;;;;;;1.92;1.60;;;11.30;80.50;;;;;;4976616;28;20033;-74
2023/12/13 01:03:34;;;;;;;1.70;1.60;;;11.30;80.50;;;;;;4975969;28;20126;-75
2023/12/13 01:06:00;;;;;;;1.65;1.55;;;11.30;80.50;;;;;;4992533;28;20125;-75
2023/12/13 01:08:26;;;;;;;2.50;1.80;;;11.30;80.50;;;;;;4992482;28;20129;-74
2023/12/13 01:10:52;;;;;;;1.70;1.60;;;11.30;80.40;;;;;;4992762;28;20133;-74
2023/12/13 01:13:18;;;;;;;1.75;1.63;;;11.30;80.40;;;;;;4960318;28;20085;-74
2023/12/13 01:15:44;;;;;;;2.08;1.83;;;11.30;80.40;;;;;;4976272;28;20042;-74
2023/12/13 01:18:09;;;;;;;1.58;1.48;;;11.30;80.40;;;;;;4976226;28;20539;-74
2023/12/13 01:20:36;;;;;;;1.63;1.52;;;11.30;80.40;;;;;;4976578;28;20037;-76
2023/12/13 01:23:01;;;;;;;2.42;1.80;;;11.30;80.40;;;;;;4992604;28;20464;-75
2023/12/13 01:25:27;;;;;;;1.83;1.67;;;11.20;80.40;;;;;;4993263;28;20042;-74
2023/12/13 01:27:57;;;;;;;1.73;1.55;;;11.20;80.40;;;;;;4992442;28;20174;-74
2023/12/13 01:30:23;;;;;;;2.00;1.63;;;11.20;80.40;;;;;;4977109;28;20082;-74
2023/12/13 01:32:49;;;;;;;2.28;1.73;;;11.30;80.40;;;;;;4976203;28;20041;-74
2023/12/13 01:35:15;;;;;;;2.35;1.80;;;11.30;80.40;;;;;;4992217;28;20039;-75
2023/12/13 01:37:40;;;;;;;1.95;1.70;;;11.20;80.40;;;;;;4975956;28;20038;-74
2023/12/13 01:40:07;;;;;;;1.58;1.40;;;11.30;80.50;;;;;;4992257;28;20034;-74
2023/12/13 01:42:37;;;;;;;1.58;1.40;;;11.30;80.50;;;;;;4992808;28;20042;-76
2023/12/13 01:45:03;;;;;;;1.60;1.50;;;11.30;80.50;;;;;;4992148;28;20026;-73
2023/12/13 01:47:28;;;;;;;1.55;1.45;;;11.30;80.50;;;;;;4992152;28;20073;-75
2023/12/13 01:49:54;;;;;;;1.80;1.70;;;11.30;80.50;;;;;;4992865;28;20026;-76
2023/12/13 01:52:21;;;;;;;1.40;1.30;;;11.20;80.40;;;;;;4975683;28;20502;-75
2023/12/13 01:54:48;;;;;;;1.55;1.45;;;11.20;80.40;;;;;;4975708;28;20042;-74
2023/12/13 01:57:14;;;;;;;1.77;1.67;;;11.30;80.50;;;;;;4975648;28;20031;-74
2023/12/13 01:59:41;;;;;;;1.92;1.52;;;11.20;80.50;;;;;;4991699;28;20058;-74
2023/12/13 02:02:08;;;;;;;1.95;1.60;;;11.20;80.40;;;;;;4991627;28;20038;-74
2023/12/13 02:04:35;;;;;;;1.90;1.50;;;11.20;80.40;;;;;;4993837;28;20042;-75
2023/12/13 02:07:01;;;;;;;2.13;1.60;;;11.20;80.40;;;;;;4996800;28;20042;-72
2023/12/13 02:09:27;;;;;;;1.40;1.30;;;11.20;80.50;;;;;;4995295;28;20117;-74
2023/12/13 02:11:53;;;;;;;1.45;1.30;;;11.20;80.40;;;;;;4995516;28;20062;-74
2023/12/13 02:14:19;;;;;;;2.17;1.70;;;11.20;80.50;;;;;;4979025;28;20034;-74
2023/12/13 02:16:45;;;;;;;1.70;1.60;;;11.20;80.50;;;;;;4979081;28;20031;-73
2023/12/13 02:19:10;;;;;;;1.50;1.40;;;11.20;80.40;;;;;;4995626;28;20375;-74
2023/12/13 02:21:37;;;;;;;1.60;1.50;;;11.20;80.50;;;;;;4996582;28;20076;-74
2023/12/13 02:24:07;;;;;;;1.60;1.50;;;11.20;80.40;;;;;;4995178;28;20142;-74
2023/12/13 02:26:39;;;;;;;1.50;1.40;;;11.20;80.50;;;;;;4995171;28;20050;-74
2023/12/13 02:29:05;;;;;;;2.08;1.38;;;11.20;80.40;;;;;;4978913;28;20046;-74
2023/12/13 02:31:31;;;;;;;1.88;1.63;;;11.20;80.40;;;;;;4994565;28;20130;-75
2023/12/13 02:33:56;;;;;;;1.83;1.52;;;11.20;80.40;;;;;;4979274;28;20373;-73
2023/12/13 02:36:22;;;;;;;2.00;1.63;;;11.20;80.40;;;;;;4995139;28;20045;-75
2023/12/13 02:38:48;;;;;;;1.50;1.40;;;11.20;80.40;;;;;;4994632;28;20022;-74
2023/12/13 02:41:13;;;;;;;1.98;1.60;;;11.20;80.40;;;;;;4995963;28;20093;-74
2023/12/13 02:43:39;;;;;;;1.70;1.58;;;11.20;80.40;;;;;;4979203;28;20444;-74
2023/12/13 02:46:06;;;;;;;1.58;1.45;;;11.20;80.40;;;;;;4978744;28;20058;-73
2023/12/13 02:48:31;;;;;;;1.58;1.48;;;11.20;80.40;;;;;;4978597;28;20140;-74
2023/12/13 02:50:57;;;;;;;1.65;1.55;;;11.20;80.40;;;;;;4994899;28;20488;-73
2023/12/13 02:53:23;;;;;;;1.55;1.45;;;11.10;80.40;;;;;;4994664;28;20034;-74
2023/12/13 02:55:49;;;;;;;1.40;1.30;;;11.10;80.40;;;;;;4994474;28;20042;-72
2023/12/13 02:58:15;;;;;;;2.17;1.35;;;11.20;80.40;;;;;;4994884;28;20501;-73
2023/12/13 03:00:41;;;;;;;1.50;1.40;;;11.20;80.40;;;;;;4994758;28;20057;-75
2023/12/13 03:03:08;;;;;;;1.40;1.30;;;11.10;80.40;;;;;;4994215;28;20066;-74
2023/12/13 03:05:35;;;;;;;1.55;1.45;;;11.10;80.40;;;;;;4995233;28;20491;-73
2023/12/13 03:08:00;;;;;;;1.55;1.40;;;11.20;80.40;;;;;;4995146;28;20081;-74
2023/12/13 03:10:27;;;;;;;1.60;1.50;;;11.20;80.40;;;;;;4995361;28;20045;-74
2023/12/13 03:12:53;;;;;;;2.00;1.27;;;11.20;80.40;;;;;;4978100;28;20161;-73
2023/12/13 03:15:19;;;;;;;1.45;1.35;;;11.20;80.40;;;;;;4993998;28;20038;-74
2023/12/13 03:17:45;;;;;;;1.63;1.30;;;11.10;80.30;;;;;;4978237;28;20057;-73
2023/12/13 03:20:11;;;;;;;1.42;1.33;;;11.10;80.30;;;;;;4977690;28;20517;-74
2023/12/13 03:22:37;;;;;;;1.40;1.30;;;11.20;80.40;;;;;;4978434;28;20058;-73
2023/12/13 03:25:04;;;;;;;1.23;1.17;;;11.20;80.40;;;;;;4993777;28;20049;-74
2023/12/13 03:27:30;;;;;;;1.48;1.38;;;11.10;80.30;;;;;;4994325;28;20041;-75
2023/12/13 03:29:56;;;;;;;1.40;1.30;;;11.10;80.40;;;;;;4977785;28;20447;-74
2023/12/13 03:32:21;;;;;;;1.40;1.30;;;11.20;80.40;;;;;;4994250;28;20041;-75
2023/12/13 03:34:47;;;;;;;1.38;1.27;;;11.10;80.40;;;;;;4993687;28;20066;-74
2023/12/13 03:37:14;;;;;;;1.40;1.30;;;11.10;80.30;;;;;;4993698;28;20026;-73
2023/12/13 03:39:40;;;;;;;1.40;1.30;;;11.10;80.40;;;;;;4994688;28;20030;-75
2023/12/13 03:42:06;;;;;;;1.33;1.23;;;11.10;80.30;;;;;;4977897;28;20383;-74
2023/12/13 03:44:31;;;;;;;1.60;1.50;;;11.20;80.40;;;;;;4977358;28;20129;-73
2023/12/13 03:46:57;;;;;;;1.60;1.30;;;11.20;80.40;;;;;;4977576;28;20048;-74
2023/12/13 03:49:23;;;;;;;1.52;1.42;;;11.10;80.30;;;;;;4977464;28;20037;-75
2023/12/13 03:51:49;;;;;;;1.60;1.50;;;11.20;80.40;;;;;;4994570;28;20482;-73
2023/12/13 03:54:15;;;;;;;1.33;1.23;;;11.10;80.40;;;;;;4977501;28;20062;-73
2023/12/13 03:56:41;;;;;;;1.40;1.30;;;11.20;80.40;;;;;;4993832;28;20125;-74
2023/12/13 03:59:08;;;;;;;2.10;1.38;;;11.20;80.40;;;;;;4977956;28;20034;-71
2023/12/13 04:01:34;;;;;;;1.58;1.48;;;11.20;80.40;;;;;;4993536;28;20069;-74
2023/12/13 04:03:59;;;;;;;1.15;1.10;;;11.20;80.40;;;;;;4976863;28;20047;-73
2023/12/13 04:06:25;;;;;;;1.45;1.35;;;11.20;80.40;;;;;;4993332;28;20045;-73
2023/12/13 04:08:51;;;;;;;1.40;1.30;;;11.20;80.40;;;;;;4993322;28;20403;-74
2023/12/13 04:11:16;;;;;;;2.15;1.60;;;11.10;80.30;;;;;;4993511;28;20041;-74
2023/12/13 04:13:42;;;;;;;1.75;1.50;;;11.10;80.40;;;;;;4977247;28;20038;-73
2023/12/13 04:16:08;;;;;;;1.92;1.60;;;11.10;80.30;;;;;;4976935;28;20033;-74
2023/12/13 04:18:35;;;;;;;1.52;1.40;;;11.20;80.40;;;;;;4976609;28;20125;-74
2023/12/13 04:21:01;;;;;;;1.33;1.23;;;11.20;80.40;;;;;;4992760;28;20038;-73
2023/12/13 04:23:27;;;;;;;1.52;1.42;;;11.20;80.40;;;;;;4993331;28;20054;-72
2023/12/13 04:25:52;;;;;;;1.92;1.67;;;11.20;80.40;;;;;;4993014;28;20066;-74
2023/12/13 04:28:18;;;;;;;1.63;1.45;;;11.20;80.40;;;;;;4992512;28;20483;-72
2023/12/13 04:30:44;;;;;;;1.60;1.48;;;11.20;80.40;;;;;;4993051;28;20057;-73
2023/12/13 04:33:10;;;;;;;1.60;1.50;;;11.20;80.40;;;;;;4993121;28;20026;-74
2023/12/13 04:35:35;;;;;;;1.55;1.45;;;11.10;80.40;;;;;;4976983;28;20034;-73
2023/12/13 04:38:01;;;;;;;1.95;1.50;;;11.20;80.40;;;;;;4977352;28;20121;-74
2023/12/13 04:40:28;;;;;;;2.17;1.98;;;11.20;80.40;;;;;;4993253;28;20423;-75
2023/12/13 04:42:54;;;;;;;1.80;1.70;;;11.20;80.40;;;;;;4992630;28;20042;-73
2023/12/13 04:45:20;;;;;;;1.65;1.50;;;11.20;80.40;;;;;;4993940;28;20034;-74
2023/12/13 04:47:45;;;;;;;1.63;1.52;;;11.20;80.40;;;;;;4993918;28;20121;-74
2023/12/13 04:50:11;;;;;;;1.63;1.52;;;11.20;80.40;;;;;;4992713;28;20027;-74
2023/12/13 04:52:37;;;;;;;1.60;1.50;;;11.20;80.40;;;;;;4976597;28;20088;-74
2023/12/13 04:55:03;;;;;;;1.50;1.40;;;11.20;80.40;;;;;;4976677;28;20069;-73
2023/12/13 04:57:29;;;;;;;2.20;1.67;;;11.20;80.40;;;;;;4993044;28;20038;-74
2023/12/13 04:59:55;;;;;;;1.58;1.48;;;11.20;80.40;;;;;;4961451;28;20412;-74
2023/12/13 05:02:20;;;;;;;2.00;1.80;;;11.20;80.40;;;;;;4992483;28;20034;-74
2023/12/13 05:04:47;;;;;;;2.15;1.55;;;11.20;80.50;;;;;;4992721;28;20050;-74
2023/12/13 05:07:12;;;;;;;1.88;1.58;;;11.20;80.50;;;;;;4992768;28;20472;-74
2023/12/13 05:09:38;;;;;;;1.60;1.50;;;11.20;80.40;;;;;;4993414;28;20099;-73
2023/12/13 05:12:04;;;;;;;1.60;1.50;;;11.20;80.40;;;;;;4992560;28;20057;-74
2023/12/13 05:14:30;;;;;;;1.65;1.55;;;11.20;80.40;;;;;;4976968;28;20026;-74
2023/12/13 05:16:56;;;;;;;1.52;1.42;;;11.20;80.50;;;;;;4976000;28;20026;-74
2023/12/13 05:19:21;;;;;;;1.90;1.70;;;11.20;80.40;;;;;;4992461;28;20085;-74
2023/12/13 05:21:47;;;;;;;2.47;1.77;;;11.20;80.40;;;;;;4992569;28;20515;-74
2023/12/13 05:24:13;;;;;;;1.63;1.52;;;11.20;80.40;;;;;;4992357;28;20073;-72
2023/12/13 05:26:39;;;;;;;1.70;1.60;;;11.20;80.40;;;;;;4976511;28;20067;-73
2023/12/13 05:29:04;;;;;;;2.05;1.83;;;11.20;80.40;;;;;;4976008;28;20524;-75
2023/12/13 05:31:30;;;;;;;1.98;1.42;;;11.20;80.40;;;;;;4976091;28;20494;-74
2023/12/13 05:33:56;;;;;;;1.98;1.77;;;11.20;80.50;;;;;;4992081;28;20045;-74
2023/12/13 05:36:22;;;;;;;1.85;1.58;;;11.20;80.50;;;;;;4992275;28;20121;-74
2023/12/13 05:38:48;;;;;;;2.25;1.70;;;11.20;80.50;;;;;;4993815;28;20026;-73
2023/12/13 05:41:13;;;;;;;1.83;1.70;;;11.20;80.50;;;;;;4996092;28;20122;-72
2023/12/13 05:43:39;;;;;;;1.70;1.60;;;11.20;80.50;;;;;;4980038;28;20034;-74
2023/12/13 05:46:06;;;;;;;2.38;1.95;;;11.20;80.50;;;;;;4979911;28;20077;-75
2023/12/13 05:48:32;;;;;;;2.22;1.70;;;11.20;80.50;;;;;;4996769;28;20096;-74
2023/12/13 05:50:59;;;;;;;2.05;1.63;;;11.20;80.50;;;;;;4995960;28;20109;-74
2023/12/13 05:53:24;;;;;;;2.00;1.73;;;11.20;80.50;;;;;;4997322;28;20034;-74
2023/12/13 05:55:50;;;;;;;3.28;1.80;;;11.20;80.50;;;;;;4979413;28;20046;-74
2023/12/13 05:58:16;;;;;;;2.30;1.60;;;11.20;80.50;;;;;;4979400;28;20031;-74
2023/12/13 06:00:42;;;;;;;1.88;1.73;;;11.20;80.50;;;;;;4996314;28;20026;-73
2023/12/13 06:03:09;;;;;;;1.75;1.65;;;11.20;80.50;;;;;;4979911;28;20050;-74
2023/12/13 06:05:35;;;;;;;2.40;1.77;;;11.20;80.50;;;;;;4995508;28;20039;-74
2023/12/13 06:08:00;;;;;;;2.00;1.80;;;11.20;80.50;;;;;;4997515;28;20464;-73
2023/12/13 06:10:26;;;;;;;1.85;1.70;;;11.20;80.50;;;;;;4995474;28;20065;-74
2023/12/13 06:12:52;;;;;;;2.13;1.80;;;11.20;80.50;;;;;;4995339;28;20038;-74
2023/12/13 06:15:21;;;;;;;2.50;1.98;;;11.20;80.50;;;;;;4995206;28;20042;-76
2023/12/13 06:17:47;;;;;;;2.22;1.67;;;11.20;80.60;;;;;;4979731;28;20034;-74
2023/12/13 06:20:13;;;;;;;2.38;1.75;;;11.20;80.50;;;;;;4996619;28;20119;-74
2023/12/13 06:22:39;;;;;;;2.58;1.85;;;11.20;80.50;;;;;;4978962;28;20498;-75
2023/12/13 06:25:05;;;;;;;1.95;1.75;;;11.20;80.50;;;;;;4996103;28;20035;-74
2023/12/13 06:27:31;;;;;;;1.75;1.63;;;11.20;80.50;;;;;;4995229;28;20062;-75
2023/12/13 06:29:57;;;;;;;1.65;1.55;;;11.20;80.50;;;;;;4995651;28;20097;-74
2023/12/13 06:32:23;;;;;;;2.75;1.90;;;11.20;80.50;;;;;;4995107;28;20042;-74
2023/12/13 06:34:48;;;;;;;2.08;1.85;;;11.20;80.50;;;;;;4994663;28;20037;-72
2023/12/13 06:37:14;;;;;;;2.20;1.88;;;11.20;80.50;;;;;;4995340;28;20026;-74
2023/12/13 06:39:40;;;;;;;1.88;1.60;;;11.20;80.60;;;;;;4995062;28;20085;-76
2023/12/13 06:42:09;;;;;;;1.65;1.55;;;11.20;80.50;;;;;;4996398;28;20026;-74
2023/12/13 06:44:37;;;;;;;2.08;1.90;;;11.20;80.50;;;;;;4994843;28;20049;-75
2023/12/13 06:47:03;;;;;;;2.25;1.67;;;11.20;80.60;;;;;;4994546;28;20549;-73
2023/12/13 06:49:31;;;;;;;2.80;1.80;;;11.20;80.60;;;;;;4994558;28;20026;-74
2023/12/13 06:52:01;;;;;;;2.08;1.80;;;11.20;80.60;;;;;;4979127;28;20422;-74
2023/12/13 06:54:28;;;;;;;2.67;1.88;;;11.20;80.60;;;;;;4978643;28;20468;-73
2023/12/13 06:56:54;;;;;;;2.42;1.90;;;11.30;80.60;;;;;;4994526;28;20038;-73
2023/12/13 06:59:20;;;;;;;2.10;1.80;;;11.30;80.60;;;;;;4978679;28;20073;-74
2023/12/13 07:01:45;;;;;;;2.33;1.70;;;11.30;80.60;;;;;;4978368;28;20526;-74
2023/12/13 07:04:11;;;;;;;2.90;2.13;;;11.20;80.60;;;;;;4994816;28;20496;-73
2023/12/13 07:06:37;;;;;;;2.28;1.80;;;11.30;80.60;;;;;;4995937;28;20104;-74
2023/12/13 07:09:03;;;;;;;2.08;1.85;;;11.20;80.60;;;;;;4978177;28;20042;-74
2023/12/13 07:11:29;;;;;;;2.22;1.95;;;11.30;80.60;;;;;;4995353;28;20042;-74
2023/12/13 07:13:55;;;;;;;2.20;1.83;;;11.20;80.60;;;;;;4996203;28;20029;-72
2023/12/13 07:16:21;;;;;;;2.80;2.13;;;11.30;80.60;;;;;;4978153;28;20118;-73
2023/12/13 07:18:46;;;;;;;2.53;1.88;;;11.30;80.60;;;;;;4994821;28;20382;-73
2023/12/13 07:21:12;;;;;;;2.17;1.98;;;11.20;80.60;;;;;;4978136;28;20410;-75
2023/12/13 07:23:39;;;;;;;4.20;2.08;;;11.30;80.60;;;;;;4978368;28;20034;-74
2023/12/13 07:26:06;;;;;;;2.55;1.85;;;11.30;80.60;;;;;;4995812;28;20092;-74
2023/12/13 07:28:32;;;;;;;2.22;1.90;;;11.20;80.60;;;;;;4977560;28;20125;-72
2023/12/13 07:31:01;;;;;;;2.50;2.05;;;11.20;80.60;;;;;;4978273;28;20072;-75
2023/12/13 07:33:28;;;;;;;2.33;1.77;;;11.20;80.60;;;;;;4994889;28;20034;-74
2023/12/13 07:35:53;;;;;;;2.00;1.80;;;11.30;80.60;;;;;;4977934;28;20073;-73
2023/12/13 07:38:19;;;;;;;2.83;2.03;;;11.30;81.20;;;;;;4977619;28;20424;-73
2023/12/13 07:40:47;;;;;;;2.67;2.10;;;11.30;80.60;;;;;;4977781;28;20035;-74
2023/12/13 07:43:13;;;;;;;2.15;1.85;;;11.20;80.50;;;;;;4978030;28;20027;-73
2023/12/13 07:45:39;;;;;;;2.65;2.00;;;11.20;80.50;;;;;;4993468;28;20058;-74
2023/12/13 07:48:05;;;;;;;2.70;2.03;;;11.30;80.60;;;;;;4977554;28;20030;-74
2023/12/13 07:50:31;;;;;;;2.22;1.83;;;11.30;80.60;;;;;;4961909;28;20086;-71
2023/12/13 07:52:57;;;;;;;2.55;1.80;;;11.30;80.60;;;;;;4993551;28;20494;-73
2023/12/13 07:55:23;;;;;;;2.72;2.10;;;11.30;80.60;;;;;;4977776;28;20035;-74
2023/12/13 07:57:49;;;;;;;2.83;1.83;;;11.30;80.60;;;;;;4994008;28;20125;-74
2023/12/13 08:00:16;;;;;;;3.47;2.10;;;11.30;80.60;;;;;;4977013;28;20030;-74
2023/12/13 08:02:42;;;;;;;3.20;1.92;;;11.30;80.60;;;;;;4977130;28;20058;-74
2023/12/13 08:05:08;;;;;;;3.38;2.28;;;11.30;80.60;;;;;;4977073;28;20042;-74
2023/12/13 08:07:35;;;;;;;2.90;1.98;;;11.30;80.60;;;;;;4994296;28;20109;-73
2023/12/13 08:10:07;;;;;;;3.88;1.92;;;11.30;80.60;;;;;;4977291;28;20066;-75
2023/12/13 08:12:36;;;;;;;3.20;2.08;;;11.30;80.70;;;;;;4993433;28;20117;-74
2023/12/13 08:15:05;;;;;;;2.70;2.08;;;11.30;80.60;;;;;;4976922;28;20042;-72
2023/12/13 08:17:33;;;;;;;2.35;1.88;;;11.30;80.60;;;;;;4992861;28;20038;-74
2023/12/13 08:20:00;;;;;;;3.10;1.80;;;11.30;80.60;;;;;;4977475;28;20041;-73
2023/12/13 08:22:26;;;;;;;2.75;2.10;;;11.30;80.60;;;;;;4976933;28;20030;-74
2023/12/13 08:24:52;;;;;;;2.50;1.90;;;11.30;80.60;;;;;;4993029;28;20390;-74
2023/12/13 08:27:17;;;;;;;3.75;2.40;;;11.30;80.60;;;;;;4976728;28;20034;-74
2023/12/13 08:29:43;;;;;;;2.60;2.00;;;11.30;80.60;;;;;;4977074;28;20435;-72
2023/12/13 08:32:09;;;;;;;2.72;2.15;;;11.30;80.60;;;;;;4992975;28;20042;-75
2023/12/13 08:34:34;;;;;;;2.55;1.98;;;11.30;80.60;;;;;;4976873;28;20038;-72
2023/12/13 08:37:03;;;;;;;2.42;2.03;;;11.30;80.60;;;;;;4993105;28;20057;-74
2023/12/13 08:39:29;;;;;;;2.70;2.00;;;11.30;80.60;;;;;;4976486;28;20034;-73
2023/12/13 08:41:54;;;;;;;3.25;2.10;;;11.30;80.60;;;;;;4976473;28;20069;-75
2023/12/13 08:44:21;;;;;;;2.28;1.83;;;11.30;80.60;;;;;;4992582;28;20043;-75
2023/12/13 08:46:47;;;;;;;2.97;2.00;;;11.30;80.60;;;;;;4976449;28;20041;-74
2023/12/13 08:49:13;;;;;;;3.75;2.10;;;11.30;80.60;;;;;;4994297;28;20481;-74
2023/12/13 08:51:38;;;;;;;2.80;2.05;;;11.30;80.60;;;;;;4992824;28;20361;-75
2023/12/13 08:54:04;;;;;;;2.85;2.00;;;11.30;80.60;;;;;;4993544;28;20076;-75
2023/12/13 08:56:31;;;;;;;2.47;2.00;;;11.30;80.60;;;;;;4992511;28;20460;-77
2023/12/13 08:58:57;;;;;;;2.35;1.80;;;11.30;80.60;;;;;;4976620;28;20037;-75
2023/12/13 09:01:23;;;;;;;3.55;2.08;;;11.30;80.60;;;;;;4992500;28;20399;-75
2023/12/13 09:03:50;;;;;;;3.15;2.00;;;11.30;80.60;;;;;;4975969;28;20138;-74
2023/12/13 09:06:16;;;;;;;2.90;1.80;;;11.30;80.60;;;;;;4992386;28;20093;-74
2023/12/13 09:08:42;;;;;;;3.03;2.05;;;11.30;80.60;;;;;;4993692;28;20034;-74
2023/12/13 09:11:08;;;;;;;2.78;1.95;;;11.30;80.60;;;;;;4992424;28;20077;-74
2023/12/13 09:13:34;;;;;;;1.73;1.63;;;11.40;80.70;;;;;;4978152;28;20039;-76
2023/12/13 09:16:00;;;;;;;3.67;2.15;;;11.30;80.60;;;;;;4980367;28;20042;-75
2023/12/13 09:18:25;;;;;;;2.85;1.98;;;11.40;80.60;;;;;;4980331;28;20027;-75
2023/12/13 09:20:51;;;;;;;2.88;2.03;;;11.30;80.60;;;;;;4980236;28;20027;-74
2023/12/13 09:23:25;;;;;;;3.08;2.28;;;11.30;80.60;;;;;;4996474;28;20041;-75
2023/12/13 09:25:51;;;;;;;2.67;2.10;;;11.40;80.70;;;;;;4997231;28;20101;-74
2023/12/13 09:28:17;;;;;;;3.33;2.17;;;11.40;80.60;;;;;;4980028;28;20467;-74
2023/12/13 09:30:44;;;;;;;2.35;2.15;;;11.40;80.60;;;;;;4980596;28;20034;-75
2023/12/13 09:33:13;;;;;;;4.15;2.38;;;11.40;80.60;;;;;;4996535;28;20026;-76
2023/12/13 09:35:39;;;;;;;2.60;2.22;;;11.40;80.60;;;;;;4995949;28;20066;-76
2023/12/13 09:38:05;;;;;;;3.50;2.00;;;11.40;80.70;;;;;;4995854;28;20105;-74
2023/12/13 09:40:32;;;;;;;3.10;2.17;;;11.40;80.60;;;;;;4996166;28;20065;-73
2023/12/13 09:42:58;;;;;;;2.55;2.00;;;11.40;80.60;;;;;;4995835;28;20030;-75
2023/12/13 09:45:23;;;;;;;3.28;2.45;;;11.40;80.60;;;;;;4997407;28;20045;-73
2023/12/13 09:47:51;;;;;;;3.63;2.40;;;11.40;80.60;;;;;;4979361;28;20022;-74
2023/12/13 09:50:20;;;;;;;3.15;2.10;;;11.40;80.60;;;;;;4995570;28;20488;-74
2023/12/13 09:52:47;;;;;;;3.42;1.90;;;11.40;80.60;;;;;;4979425;28;20029;-73
2023/12/13 09:55:15;;;;;;;3.25;2.22;;;11.40;80.60;;;;;;4979885;28;20157;-73
2023/12/13 09:57:41;;;;;;;2.70;2.10;;;11.40;80.60;;;;;;4995892;28;20064;-73
2023/12/13 10:00:07;;;;;;;4.32;2.50;;;11.50;80.70;;;;;;4995699;28;20038;-74
2023/12/13 10:02:34;;;;;;;3.15;2.10;;;11.50;80.60;;;;;;4995288;28;20092;-74
2023/12/13 10:05:00;;;;;;;2.90;2.20;;;11.40;80.60;;;;;;4995304;28;20109;-73
2023/12/13 10:07:29;;;;;;;3.55;2.20;;;11.40;80.60;;;;;;4995434;28;20030;-72
2023/12/13 10:09:55;;;;;;;2.97;2.13;;;11.50;80.70;;;;;;4995362;28;20042;-73
2023/12/13 10:12:22;;;;;;;2.92;2.13;;;11.50;80.60;;;;;;4995355;28;20471;-73
2023/12/13 10:14:48;;;;;;;2.80;2.17;;;11.50;80.60;;;;;;4996372;28;20034;-73
2023/12/13 10:17:13;;;;;;;2.47;1.98;;;11.50;80.60;;;;;;4979108;28;20045;-73
2023/12/13 10:19:40;;;;;;;3.00;2.20;;;11.50;80.60;;;;;;4979933;28;20040;-73
2023/12/13 10:22:06;;;;;;;3.58;2.30;;;11.50;80.60;;;;;;4995332;28;20114;-74
2023/12/13 10:24:32;;;;;;;3.47;1.98;;;11.50;80.60;;;;;;4994391;28;20547;-74
2023/12/13 10:26:58;;;;;;;2.67;2.30;;;11.50;80.60;;;;;;4994922;28;20045;-74
2023/12/13 10:29:24;;;;;;;3.85;2.50;;;11.50;80.60;;;;;;4996444;28;20031;-73
2023/12/13 10:31:50;;;;;;;3.65;2.40;;;11.50;80.60;;;;;;4996638;28;20038;-74
2023/12/13 10:34:16;;;;;;;3.40;2.28;;;11.50;80.50;;;;;;4996050;28;20042;-74
2023/12/13 10:36:43;;;;;;;2.83;2.20;;;11.60;80.60;;;;;;4978836;28;20491;-75
2023/12/13 10:39:13;;;;;;;2.95;2.20;;;11.60;80.60;;;;;;4994689;28;20054;-74
2023/12/13 10:41:44;;;;;;;2.90;2.20;;;11.60;80.60;;;;;;4995200;28;20357;-74
2023/12/13 10:44:18;;;;;;;3.55;2.15;;;11.50;80.50;;;;;;4995599;28;20026;-75
2023/12/13 10:46:48;;;;;;;3.47;2.22;;;11.60;80.60;;;;;;4995620;28;20097;-73
2023/12/13 10:49:19;;;;;;;2.97;2.40;;;11.60;80.50;;;;;;4994935;28;20038;-74
2023/12/13 10:51:47;;;;;;;2.40;2.05;;;11.60;80.50;;;;;;4994948;28;20049;-74
2023/12/13 10:54:13;;;;;;;2.90;2.20;;;11.60;80.50;;;;;;4978569;28;20027;-74
2023/12/13 10:56:40;;;;;;;3.35;2.05;;;11.60;80.50;;;;;;4994764;28;20395;-74
2023/12/13 10:59:09;;;;;;;1.90;1.70;;;11.60;80.50;;;;;;4978642;28;20018;-74
2023/12/13 11:01:36;;;;;;;2.47;1.90;;;11.60;80.50;;;;;;4995856;28;20066;-75
2023/12/13 11:04:08;;;;;;;3.08;2.20;;;11.60;80.50;;;;;;4994158;28;20146;-74
2023/12/13 11:06:36;;;;;;;3.40;2.30;;;11.60;80.50;;;;;;4995788;28;20069;-73
2023/12/13 11:09:20;;;;;;;3.78;2.40;;;11.60;80.50;;;;;;4994088;28;20034;-74
2023/12/13 11:11:47;;;;;;;3.28;2.17;;;11.60;80.50;;;;;;4978481;28;20415;-74
2023/12/13 11:14:15;;;;;;;2.80;2.13;;;11.60;80.50;;;;;;4994420;28;20034;-73
2023/12/13 11:16:45;;;;;;;2.67;1.73;;;11.60;80.50;;;;;;4995585;28;20050;-75
2023/12/13 11:19:15;;;;;;;3.50;1.83;;;11.60;80.50;;;;;;4978230;28;20098;-76
2023/12/13 11:21:41;;;;;;;2.38;1.98;;;11.60;80.50;;;;;;4977998;28;20041;-75
2023/12/13 11:24:22;;;;;;;3.05;1.92;;;11.60;80.50;;;;;;4977971;28;20043;-75
2023/12/13 11:26:50;;;;;;;3.17;2.08;;;11.70;80.50;;;;;;4978191;28;20445;-75
2023/12/13 11:29:22;;;;;;;2.90;1.80;;;11.60;80.40;;;;;;4977939;28;20038;-74
2023/12/13 11:32:00;;;;;;;3.28;2.05;;;11.70;80.50;;;;;;4994329;28;20030;-75
2023/12/13 11:34:32;;;;;;;2.65;2.17;;;11.70;80.50;;;;;;4993916;28;20073;-76
2023/12/13 11:37:02;;;;;;;2.55;1.95;;;11.70;80.50;;;;;;4977301;28;20062;-74
2023/12/13 11:39:29;;;;;;;2.65;2.00;;;11.70;80.50;;;;;;4993885;28;20104;-75
2023/12/13 11:41:55;;;;;;;2.17;1.85;;;11.70;80.50;;;;;;4994359;28;20517;-75
2023/12/13 11:44:20;;;;;;;2.20;2.00;;;11.60;80.40;;;;;;4961753;28;20038;-75
2023/12/13 11:47:06;;;;;;;2.65;1.88;;;11.70;80.50;;;;;;4993477;28;20460;-75
2023/12/13 11:49:31;;;;;;;2.05;1.83;;;11.70;80.50;;;;;;4977718;28;20383;-75
2023/12/13 11:51:58;;;;;;;2.38;1.90;;;11.70;80.50;;;;;;4993342;28;20121;-76
2023/12/13 11:54:24;;;;;;;2.15;1.95;;;11.70;80.50;;;;;;4977556;28;20509;-75
2023/12/13 11:56:50;;;;;;;3.70;2.00;;;11.70;80.50;;;;;;4994477;28;20118;-75
2023/12/13 11:59:20;;;;;;;2.03;1.83;;;11.70;80.50;;;;;;4993376;28;20038;-75
2023/12/13 12:01:46;;;;;;;3.08;2.00;;;11.70;80.50;;;;;;4977243;28;20056;-75
2023/12/13 12:04:13;;;;;;;2.67;1.98;;;11.70;80.50;;;;;;4977054;28;20054;-74
2023/12/13 12:06:52;;;;;;;2.03;1.83;;;11.70;80.50;;;;;;4977879;28;20065;-75
2023/12/13 12:09:24;;;;;;;2.70;2.08;;;11.70;80.50;;;;;;4993233;28;20026;-73
2023/12/13 12:11:54;;;;;;;1.92;1.73;;;11.70;80.50;;;;;;4977949;28;20035;-74
2023/12/13 12:14:19;;;;;;;2.50;2.00;;;11.70;81.10;;;;;;4993312;28;20038;-75
2023/12/13 12:16:45;;;;;;;2.38;2.00;;;11.70;80.50;;;;;;4993081;28;20045;-75
2023/12/13 12:19:11;;;;;;;2.97;1.83;;;11.70;80.50;;;;;;4993075;28;20034;-75
2023/12/13 12:21:37;;;;;;;2.17;1.90;;;11.70;80.50;;;;;;4976832;28;20034;-74
2023/12/13 12:24:03;;;;;;;1.67;1.55;;;11.70;80.50;;;;;;4976667;28;20110;-75
2023/12/13 12:26:29;;;;;;;2.72;1.90;;;11.70;80.50;;;;;;4994259;28;20030;-75
2023/12/13 12:28:55;;;;;;;2.45;1.85;;;11.70;80.50;;;;;;4976566;28;20038;-75
2023/12/13 12:31:21;;;;;;;2.05;1.80;;;11.70;80.50;;;;;;4993347;28;20030;-74
2023/12/13 12:33:57;;;;;;;2.28;1.90;;;11.70;80.50;;;;;;4993036;28;20118;-74
2023/12/13 12:36:24;;;;;;;2.05;1.85;;;11.70;80.50;;;;;;4976295;28;20041;-74
2023/12/13 12:38:50;;;;;;;2.13;1.80;;;11.70;80.50;;;;;;4976518;28;20040;-75
2023/12/13 12:41:16;;;;;;;2.72;2.03;;;11.70;80.40;;;;;;4994216;28;20455;-75
2023/12/13 12:43:42;;;;;;;2.53;1.88;;;11.70;80.50;;;;;;4992891;28;20030;-77
2023/12/13 12:46:08;;;;;;;2.80;2.03;;;11.70;80.50;;;;;;4992734;28;20444;-75